This is the latest recevied weather packets stored in our database for station/object OE3MHU-12. If no packets are shown the sender has not sent any weather packets the latest 10 day(s).
| Time | Temp. | Humidity | Pressure | Rain* | Wind** | Luminosity | Snow |
|---|---|---|---|---|---|---|---|
| 1777530358 | 5° C | 55% | 1031.9 hPa | 0 mm | - | - | - |
| 1777526758 | -2.22° C | 74% | 1031.6 hPa | 0 mm | - | - | - |
| 1777524959 | -3.33° C | 75% | 1031.7 hPa | 0 mm | - | - | - |
| 1777521359 | -3.89° C | 74% | 1031.2 hPa | 0 mm | - | - | - |
| 1777519559 | -3.89° C | 74% | 1031 hPa | 0 mm | - | - | - |
| 1777517759 | -3.33° C | 73% | 1030.9 hPa | 0 mm | - | - | - |
| 1777515959 | -2.78° C | 71% | 1030.6 hPa | 0 mm | - | - | - |
| 1777514159 | -2.78° C | 71% | 1030.5 hPa | 0 mm | - | - | - |
| 1777512359 | -2.78° C | 70% | 1030.4 hPa | 0 mm | - | - | - |
| 1777510559 | -2.22° C | 68% | 1030.3 hPa | 0 mm | - | - | - |
| 1777508760 | -1.67° C | 67% | 1030.1 hPa | 0 mm | - | - | - |
| 1777506960 | -1.11° C | 65% | 1030.1 hPa | 0 mm | - | - | - |
| 1777505262 | -0.56° C | 62% | 1030.2 hPa | 0 mm | - | - | - |
| 1777490760 | 6.67° C | 38% | 1027.4 hPa | 0 mm | - | - | - |
| 1777485361 | 9.44° C | 36% | 1025.2 hPa | 0 mm | - | - | - |
| 1777481761 | 11.67° C | 38% | 1024 hPa | 0 mm | - | - | - |
| 1777479963 | 12.22° C | 38% | 1023.7 hPa | 0 mm | - | - | - |
| 1777465562 | 15° C | 34% | 1023.2 hPa | 0 mm | - | - | - |
| 1777463762 | 14.44° C | 33% | 1023.2 hPa | 0 mm | - | - | - |
| 1777461962 | 13.89° C | 32% | 1023.4 hPa | 0 mm | - | - | - |
| 1777460162 | 13.33° C | 35% | 1023.7 hPa | 0 mm | - | - | - |
| 1777454762 | 12.78° C | 34% | 1024.1 hPa | 0 mm | - | - | - |
| 1777452962 | 12.22° C | 35% | 1024.2 hPa | 0 mm | - | - | - |
| 1777451162 | 11.11° C | 38% | 1024.2 hPa | 0 mm | - | - | - |
| 1777449362 | 11.11° C | 39% | 1024.1 hPa | 0 mm | - | - | - |
* Rain latest hour (hover to see other rain measurements)
** Current wind speed in m/s (hover to see current wind gust speed)